EGPI/ILY METAR and TAF weather

Enter ICAO airport designator
Station Type Date Time Source
EGPI METAR 2018/07/21 03:50 UTC NOAA

EGPI 210350Z AUTO 33007KT 9999 // OVC011/// 13/11 Q1014


Station Type Date Time Source
EGPI Decoded METAR 2018/07/21 03:50 UTC NOAA

Islay, United Kingdom (EGPI) 55-40-55N 006-15-24W
Jul 20, 2018 - 11:50 PM EDT / 2018.07.21 0350 UTC
Wind: from the NNW (330 degrees) at 8 MPH (7 KT):0
Visibility: greater than 7 mile(s):0
Sky conditions: overcast
Temperature: 55 F (13 C)
Dew Point: 51 F (11 C)
Relative Humidity: 87%
Pressure (altimeter): 29.94 in. Hg (1014 hPa)
ob: EGPI 210350Z AUTO 33007KT 9999 // OVC011/// 13/11 Q1014
cycle: 4

Station Type Date Time Source
EGPI TAF UTC NOAA

Error!


Example: see airport list